This is the latest recevied weather packets stored in our database for station/object KC7WRB. If no packets are shown the sender has not sent any weather packets the latest 10 day(s).
| Time | Temp. | Humidity | Pressure | Rain* | Wind** | Luminosity | Snow |
|---|---|---|---|---|---|---|---|
| 1788602167 | 9.44° C | 64% | 1017.5 hPa | 0 mm | - | 0 W/m² | - |
| 1788601862 | 8.89° C | 67% | 1017.5 hPa | 0 mm | - | 0 W/m² | - |
| 1788601557 | 8.89° C | 64% | 1017.7 hPa | 0 mm | - | 0 W/m² | - |
| 1788601257 | 8.89° C | 66% | 1017.6 hPa | 0 mm | - | 0 W/m² | - |
| 1788600956 | 8.89° C | 66% | 1017.7 hPa | 0 mm | - | 0 W/m² | - |
| 1788600653 | 8.89° C | 64% | 1017.8 hPa | 0 mm | - | 0 W/m² | - |
| 1788600353 | 9.44° C | 63% | 1017.6 hPa | 0 mm | - | 0 W/m² | - |
| 1788600049 | 10° C | 61% | 1017.5 hPa | 0 mm | - | 0 W/m² | - |
| 1788599772 | 10° C | 61% | 1017.5 hPa | 0 mm | - | 0 W/m² | - |
| 1788599443 | 10° C | 62% | 1017.4 hPa | 0 mm | - | 0 W/m² | - |
| 1788599142 | 9.44° C | 65% | 1017.4 hPa | 0 mm | - | 0 W/m² | - |
| 1788598838 | 8.89° C | 65% | 1017.6 hPa | 0 mm | - | 0 W/m² | - |
| 1788598536 | 10° C | 62% | 1017.8 hPa | 0 mm | - | 0 W/m² | - |
| 1788598232 | 11.11° C | 58% | 1017.7 hPa | 0 mm | - | 0 W/m² | - |
| 1788597932 | 11.67° C | 56% | 1017.5 hPa | 0 mm | - | 0 W/m² | - |
| 1788597627 | 11.11° C | 57% | 1017.6 hPa | 0 mm | - | 0 W/m² | - |
| 1788597322 | 11.11° C | 56% | 1017.6 hPa | 0 mm | - | 0 W/m² | - |
| 1788597019 | 11.11° C | 57% | 1017.5 hPa | 0 mm | - | 0 W/m² | - |
| 1788596714 | 11.11° C | 58% | 1017.4 hPa | 0 mm | - | 0 W/m² | - |
| 1788596409 | 11.11° C | 58% | 1017.5 hPa | 0 mm | - | 0 W/m² | - |
| 1788596108 | 11.11° C | 57% | 1017.5 hPa | 0 mm | - | 0 W/m² | - |
| 1788595803 | 11.11° C | 56% | 1017.6 hPa | 0 mm | - | 0 W/m² | - |
| 1788595498 | 11.11° C | 57% | 1017.5 hPa | 0 mm | - | 0 W/m² | - |
| 1788595196 | 11.11° C | 56% | 1017.6 hPa | 0 mm | - | 0 W/m² | - |
| 1788594891 | 11.67° C | 53% | 1017.5 hPa | 0 mm | - | 0 W/m² | - |
* Rain latest hour (hover to see other rain measurements)
** Current wind speed in m/s (hover to see current wind gust speed)